createdAt,value
2017-03-03T00:00:34.518Z,0
2017-03-03T00:01:34.539Z,0
2017-03-03T00:02:34.196Z,0
2017-03-03T00:03:34.606Z,0
2017-03-03T00:04:35.033Z,0
2017-03-03T00:05:34.685Z,0
2017-03-03T00:06:35.111Z,0
2017-03-03T00:07:34.732Z,0
2017-03-03T00:08:34.779Z,0
2017-03-03T00:09:34.836Z,0
2017-03-03T00:10:34.864Z,0
2017-03-03T00:11:35.280Z,0
2017-03-03T00:12:35.284Z,0
2017-03-03T00:13:34.574Z,0
2017-03-03T00:14:34.994Z,0
2017-03-03T00:15:35.011Z,0
2017-03-03T00:16:35.472Z,0
2017-03-03T00:17:35.458Z,0
2017-03-03T00:18:35.097Z,0
2017-03-03T00:19:35.542Z,0
2017-03-03T00:20:35.211Z,0
2017-03-03T00:21:35.227Z,0
2017-03-03T00:22:34.878Z,0
2017-03-03T00:23:35.279Z,0
2017-03-03T00:24:35.325Z,0
2017-03-03T00:25:35.345Z,0
2017-03-03T00:26:35.382Z,0
2017-03-03T00:27:35.040Z,0
2017-03-03T00:28:35.065Z,0
2017-03-03T00:29:35.485Z,0
2017-03-03T00:30:35.918Z,0
2017-03-03T00:31:35.944Z,0
2017-03-03T00:32:35.970Z,0
2017-03-03T00:33:35.984Z,0
2017-03-03T00:34:36.018Z,0
2017-03-03T00:35:35.668Z,0
2017-03-03T00:36:35.698Z,0
2017-03-03T00:37:35.765Z,0
2017-03-03T00:38:35.379Z,0
2017-03-03T00:39:35.573Z,0
2017-03-03T00:40:35.838Z,0
2017-03-03T00:41:35.861Z,0
2017-03-03T00:42:35.909Z,0
2017-03-03T00:43:36.705Z,0
2017-03-03T00:44:36.363Z,0
2017-03-03T00:45:36.396Z,0
2017-03-03T00:46:35.669Z,0
2017-03-03T00:47:36.105Z,0
2017-03-03T00:48:35.714Z,0
2017-03-03T00:49:35.775Z,0
2017-03-03T00:50:36.934Z,0
2017-03-03T00:51:36.589Z,0
2017-03-03T00:52:36.229Z,0
2017-03-03T00:53:36.644Z,0
2017-03-03T00:54:37.075Z,0
2017-03-03T00:55:36.741Z,0
2017-03-03T00:56:36.002Z,0
2017-03-03T00:57:36.413Z,0
2017-03-03T00:58:36.428Z,0
2017-03-03T00:59:37.237Z,0
2017-03-03T01:00:36.501Z,0
2017-03-03T01:01:36.557Z,0
2017-03-03T01:02:36.995Z,0
2017-03-03T01:03:37.387Z,0
2017-03-03T01:04:36.651Z,0
2017-03-03T01:05:36.284Z,0
2017-03-03T01:06:37.092Z,0
2017-03-03T01:07:36.784Z,0
2017-03-03T01:08:36.399Z,0
2017-03-03T01:09:37.170Z,0
2017-03-03T01:10:36.450Z,0
2017-03-03T01:11:36.881Z,0
2017-03-03T01:12:36.902Z,0
2017-03-03T01:13:36.931Z,0
2017-03-03T01:14:37.341Z,0
2017-03-03T01:15:37.020Z,0
2017-03-03T01:16:37.038Z,0
2017-03-03T01:17:37.087Z,0
2017-03-03T01:18:37.886Z,0
2017-03-03T01:19:36.755Z,0
2017-03-03T01:20:37.919Z,0
2017-03-03T01:21:37.580Z,0
2017-03-03T01:22:36.845Z,0
2017-03-03T01:23:37.269Z,0
2017-03-03T01:24:36.914Z,0
2017-03-03T01:25:37.709Z,0
2017-03-03T01:26:37.384Z,0
2017-03-03T01:27:37.014Z,0
2017-03-03T01:28:37.432Z,0
2017-03-03T01:29:37.838Z,0
2017-03-03T01:30:37.898Z,0
2017-03-03T01:31:37.513Z,0
2017-03-03T01:32:37.576Z,0
2017-03-03T01:33:37.983Z,0
2017-03-03T01:34:37.258Z,0
2017-03-03T01:35:37.265Z,0
2017-03-03T01:36:38.074Z,0
2017-03-03T01:37:38.133Z,0
2017-03-03T01:38:37.772Z,0
2017-03-03T01:39:38.185Z,0
2017-03-03T01:40:38.209Z,0
2017-03-03T01:41:37.891Z,0
2017-03-03T01:42:38.258Z,0
2017-03-03T01:43:37.536Z,0
2017-03-03T01:44:38.349Z,0
2017-03-03T01:45:38.381Z,0
2017-03-03T01:46:38.010Z,0
2017-03-03T01:47:38.448Z,0
2017-03-03T01:48:37.696Z,0
2017-03-03T01:49:38.114Z,0
2017-03-03T01:50:37.754Z,0
2017-03-03T01:51:38.565Z,0
2017-03-03T01:52:37.848Z,0
2017-03-03T01:53:38.621Z,0
2017-03-03T01:54:37.885Z,0
2017-03-03T01:55:37.949Z,0
2017-03-03T01:56:37.953Z,0
2017-03-03T01:57:39.141Z,0
2017-03-03T01:58:38.780Z,0
2017-03-03T01:59:38.830Z,0
2017-03-03T02:00:38.097Z,0
2017-03-03T02:01:51.292Z,0
2017-03-03T02:02:38.603Z,0
2017-03-03T02:03:38.618Z,0
2017-03-03T02:04:38.261Z,0
2017-03-03T02:05:39.075Z,0
2017-03-03T02:06:38.340Z,0
2017-03-03T02:07:38.388Z,0
2017-03-03T02:08:38.405Z,0
2017-03-03T02:09:38.832Z,0
2017-03-03T02:10:38.885Z,0
2017-03-03T02:11:38.897Z,0
2017-03-03T02:12:38.527Z,0
2017-03-03T02:13:39.350Z,0
2017-03-03T02:14:38.609Z,0
2017-03-03T02:15:38.639Z,0
2017-03-03T02:16:39.472Z,0
2017-03-03T02:17:39.104Z,0
2017-03-03T02:18:39.104Z,0
2017-03-03T02:19:39.926Z,0
2017-03-03T02:20:39.170Z,0
2017-03-03T02:21:39.209Z,0
2017-03-03T02:22:39.236Z,0
2017-03-03T02:23:40.069Z,0
2017-03-03T02:24:39.719Z,0
2017-03-03T02:25:39.345Z,0
2017-03-03T02:26:40.220Z,0
2017-03-03T02:27:39.398Z,0
2017-03-03T02:28:39.439Z,0
2017-03-03T02:29:40.274Z,0
2017-03-03T02:30:39.149Z,0
2017-03-03T02:31:39.936Z,0
2017-03-03T02:32:40.366Z,0
2017-03-03T02:33:39.851Z,0
2017-03-03T02:34:39.656Z,0
2017-03-03T02:35:40.096Z,0
2017-03-03T02:36:39.713Z,0
2017-03-03T02:37:39.745Z,0
2017-03-03T02:38:39.773Z,0
2017-03-03T02:39:39.851Z,0
2017-03-03T02:40:40.650Z,0
2017-03-03T02:41:39.874Z,0
2017-03-03T02:42:39.914Z,0
2017-03-03T02:43:40.741Z,0
2017-03-03T02:44:39.582Z,0
2017-03-03T02:45:40.390Z,0
2017-03-03T02:46:39.649Z,0
2017-03-03T02:47:40.078Z,0
2017-03-03T02:48:39.694Z,0
2017-03-03T02:49:40.154Z,0
2017-03-03T02:50:39.766Z,0
2017-03-03T02:51:40.184Z,0
2017-03-03T02:52:39.838Z,0
2017-03-03T02:53:41.044Z,0
2017-03-03T02:54:40.306Z,0
2017-03-03T02:55:40.338Z,0
2017-03-03T02:56:40.349Z,0
2017-03-03T02:57:40.796Z,0
2017-03-03T02:58:40.823Z,0
2017-03-03T02:59:40.474Z,0
2017-03-03T03:00:40.130Z,0
2017-03-03T03:01:40.535Z,0
2017-03-03T03:02:40.544Z,0
2017-03-03T03:03:41.002Z,0
2017-03-03T03:04:40.627Z,0
2017-03-03T03:05:40.664Z,0
2017-03-03T03:06:40.678Z,0
2017-03-03T03:07:40.704Z,0
2017-03-03T03:08:40.736Z,0
2017-03-03T03:09:40.771Z,0
2017-03-03T03:10:40.425Z,0
2017-03-03T03:11:40.852Z,0
2017-03-03T03:12:40.499Z,0
2017-03-03T03:13:40.911Z,0
2017-03-03T03:14:40.977Z,0
2017-03-03T03:15:40.594Z,0
2017-03-03T03:16:41.050Z,0
2017-03-03T03:17:41.440Z,0
2017-03-03T03:18:40.697Z,0
2017-03-03T03:19:41.115Z,0
2017-03-03T03:20:41.137Z,0
2017-03-03T03:21:40.800Z,0
2017-03-03T03:22:41.599Z,0
2017-03-03T03:23:40.853Z,0
2017-03-03T03:24:41.305Z,0
2017-03-03T03:25:41.293Z,0
2017-03-03T03:26:41.349Z,0
2017-03-03T03:27:40.986Z,0
2017-03-03T03:28:41.398Z,0
2017-03-03T03:29:41.448Z,0
2017-03-03T03:30:41.849Z,0
2017-03-03T03:31:41.521Z,0
2017-03-03T03:32:41.569Z,0
2017-03-03T03:33:41.577Z,0
2017-03-03T03:34:41.594Z,0
2017-03-03T03:35:41.653Z,0
2017-03-03T03:36:42.094Z,0
2017-03-03T03:37:41.692Z,0
2017-03-03T03:38:41.719Z,0
2017-03-03T03:39:41.393Z,0
2017-03-03T03:40:42.576Z,0
2017-03-03T03:41:41.460Z,0
2017-03-03T03:42:42.674Z,0
2017-03-03T03:43:42.294Z,0
2017-03-03T03:44:42.321Z,0
2017-03-03T03:45:42.340Z,0
2017-03-03T03:46:41.994Z,0
2017-03-03T03:47:41.689Z,0
2017-03-03T03:48:41.676Z,0
2017-03-03T03:49:42.486Z,0
2017-03-03T03:50:42.110Z,0
2017-03-03T03:51:42.169Z,0
2017-03-03T03:52:42.971Z,0
2017-03-03T03:53:42.218Z,0
2017-03-03T03:54:41.876Z,0
2017-03-03T03:55:42.717Z,0
2017-03-03T03:56:41.936Z,0
2017-03-03T03:57:42.357Z,0
2017-03-03T03:58:42.041Z,0
2017-03-03T03:59:42.408Z,0
2017-03-03T04:00:42.084Z,0
2017-03-03T04:01:42.485Z,0
2017-03-03T04:02:42.927Z,0
2017-03-03T04:03:43.340Z,0
2017-03-03T04:04:42.987Z,0
2017-03-03T04:05:43.007Z,0
2017-03-03T04:06:43.071Z,0
2017-03-03T04:07:43.098Z,0
2017-03-03T04:08:42.355Z,0
2017-03-03T04:09:42.786Z,0
2017-03-03T04:10:42.806Z,0
2017-03-03T04:11:42.821Z,0
2017-03-03T04:12:43.249Z,0
2017-03-03T04:13:43.308Z,0
2017-03-03T04:14:42.927Z,0
2017-03-03T04:15:43.339Z,0
2017-03-03T04:16:42.595Z,0
2017-03-03T04:17:43.424Z,0
2017-03-03T04:18:43.029Z,0
2017-03-03T04:19:43.869Z,0
2017-03-03T04:20:43.340Z,0
2017-03-03T04:21:43.132Z,0
2017-03-03T04:22:43.191Z,0
2017-03-03T04:23:43.989Z,0
2017-03-03T04:24:43.617Z,0
2017-03-03T04:25:43.275Z,0
2017-03-03T04:26:43.712Z,0
2017-03-03T04:27:43.385Z,0
2017-03-03T04:28:43.741Z,0
2017-03-03T04:29:44.192Z,0
2017-03-03T04:30:43.824Z,0
2017-03-03T04:31:43.450Z,0
2017-03-03T04:32:43.889Z,0
2017-03-03T04:33:43.150Z,0
2017-03-03T04:34:43.164Z,0
2017-03-03T04:35:43.588Z,0
2017-03-03T04:36:44.038Z,0
2017-03-03T04:37:43.687Z,0
2017-03-03T04:38:43.712Z,0
2017-03-03T04:39:44.130Z,0
2017-03-03T04:40:44.539Z,0
2017-03-03T04:41:44.180Z,0
2017-03-03T04:42:43.423Z,0
2017-03-03T04:43:44.656Z,0
2017-03-03T04:44:43.914Z,0
2017-03-03T04:45:44.701Z,0
2017-03-03T04:46:43.971Z,0
2017-03-03T04:47:44.768Z,0
2017-03-03T04:48:43.609Z,0
2017-03-03T04:49:44.063Z,0
2017-03-03T04:50:44.097Z,0
2017-03-03T04:51:44.133Z,0
2017-03-03T04:52:44.142Z,0
2017-03-03T04:53:43.784Z,0
2017-03-03T04:54:44.207Z,0
2017-03-03T04:55:44.641Z,0
2017-03-03T04:56:44.267Z,0
2017-03-03T04:57:43.908Z,0
2017-03-03T04:58:45.100Z,0
2017-03-03T04:59:44.763Z,0
2017-03-03T05:00:44.034Z,0
2017-03-03T05:01:44.825Z,0
2017-03-03T05:02:44.892Z,0
2017-03-03T05:03:44.488Z,0
2017-03-03T05:04:44.930Z,0
2017-03-03T05:05:44.570Z,0
2017-03-03T05:06:44.201Z,0
2017-03-03T05:07:45.023Z,0
2017-03-03T05:08:44.419Z,0
2017-03-03T05:09:44.688Z,0
2017-03-03T05:10:45.136Z,0
2017-03-03T05:11:44.367Z,0
2017-03-03T05:12:44.412Z,0
2017-03-03T05:13:45.242Z,0
2017-03-03T05:14:44.863Z,0
2017-03-03T05:15:44.897Z,0
2017-03-03T05:16:44.539Z,0
2017-03-03T05:17:45.331Z,0
2017-03-03T05:18:44.967Z,0
2017-03-03T05:19:45.018Z,0
2017-03-03T05:20:45.847Z,0
2017-03-03T05:21:45.471Z,0
2017-03-03T05:22:45.112Z,0
2017-03-03T05:23:45.527Z,0
2017-03-03T05:24:45.575Z,0
2017-03-03T05:25:44.810Z,0
2017-03-03T05:26:45.628Z,0
2017-03-03T05:27:45.270Z,0
2017-03-03T05:28:44.913Z,0
2017-03-03T05:29:45.328Z,0
2017-03-03T05:30:44.992Z,0
2017-03-03T05:31:45.852Z,0
2017-03-03T05:32:45.459Z,0
2017-03-03T05:33:45.868Z,0
2017-03-03T05:34:45.892Z,0
2017-03-03T05:35:45.147Z,0
2017-03-03T05:36:45.796Z,0
2017-03-03T05:37:45.209Z,0
2017-03-03T05:38:45.242Z,0
2017-03-03T05:39:45.657Z,5
2017-03-03T05:40:45.703Z,5
2017-03-03T05:41:46.132Z,5
2017-03-03T05:42:45.393Z,5
2017-03-03T05:43:46.183Z,5
2017-03-03T05:44:45.415Z,5
2017-03-03T05:45:45.875Z,5
2017-03-03T05:46:46.297Z,10
2017-03-03T05:47:45.922Z,10
2017-03-03T05:48:45.585Z,10
2017-03-03T05:49:46.391Z,10
2017-03-03T05:50:46.012Z,15
2017-03-03T05:51:46.042Z,15
2017-03-03T05:52:45.666Z,15
2017-03-03T05:53:46.090Z,20
2017-03-03T05:54:45.770Z,20
2017-03-03T05:55:46.548Z,20
2017-03-03T05:56:46.605Z,25
2017-03-03T05:57:46.623Z,25
2017-03-03T05:58:46.645Z,25
2017-03-03T05:59:48.302Z,30
2017-03-03T06:00:46.746Z,30
2017-03-03T06:01:46.201Z,30
2017-03-03T06:02:46.411Z,35
2017-03-03T06:03:49.507Z,35
2017-03-03T06:04:46.477Z,35
2017-03-03T06:05:46.525Z,40
2017-03-03T06:06:46.536Z,40
2017-03-03T06:07:46.613Z,40
2017-03-03T06:08:46.601Z,40
2017-03-03T06:09:48.866Z,45
2017-03-03T06:10:46.654Z,45
2017-03-03T06:11:46.286Z,50
2017-03-03T06:12:47.146Z,55
2017-03-03T06:13:47.163Z,55
2017-03-03T06:14:46.812Z,60
2017-03-03T06:15:46.833Z,65
2017-03-03T06:16:46.457Z,65
2017-03-03T06:17:46.867Z,70
2017-03-03T06:18:47.300Z,70
2017-03-03T06:19:46.972Z,70
2017-03-03T06:20:47.393Z,75
2017-03-03T06:21:47.029Z,75
2017-03-03T06:22:46.661Z,75
2017-03-03T06:23:47.070Z,80
2017-03-03T06:24:47.101Z,80
2017-03-03T06:25:47.529Z,80
2017-03-03T06:26:47.189Z,80
2017-03-03T06:27:47.210Z,85
2017-03-03T06:28:46.841Z,85
2017-03-03T06:29:47.358Z,85
2017-03-03T06:30:46.912Z,90
2017-03-03T06:31:47.354Z,90
2017-03-03T06:32:47.394Z,95
2017-03-03T06:33:47.018Z,95
2017-03-03T06:34:47.042Z,100
2017-03-03T06:35:47.505Z,100
2017-03-03T06:36:47.929Z,105
2017-03-03T06:37:47.563Z,110
2017-03-03T06:38:47.607Z,115
2017-03-03T06:39:47.362Z,120
2017-03-03T06:40:47.645Z,125
2017-03-03T06:41:48.446Z,130
2017-03-03T06:42:47.723Z,135
2017-03-03T06:43:47.335Z,140
2017-03-03T06:44:48.561Z,145
2017-03-03T06:45:47.429Z,145
2017-03-03T06:46:48.195Z,150
2017-03-03T06:47:47.882Z,155
2017-03-03T06:48:48.296Z,155
2017-03-03T06:49:47.924Z,160
2017-03-03T06:50:47.556Z,165
2017-03-03T06:51:47.998Z,165
2017-03-03T06:52:48.034Z,165
2017-03-03T06:53:47.675Z,170
2017-03-03T06:54:48.113Z,170
2017-03-03T06:55:48.514Z,170
2017-03-03T06:56:48.963Z,170
2017-03-03T06:57:48.195Z,165
2017-03-03T06:58:48.631Z,170
2017-03-03T06:59:49.080Z,175
2017-03-03T07:00:48.324Z,175
2017-03-03T07:01:48.330Z,175
2017-03-03T07:02:48.776Z,180
2017-03-03T07:03:48.821Z,195
2017-03-03T07:04:48.483Z,225
2017-03-03T07:05:49.236Z,250
2017-03-03T07:06:49.671Z,275
2017-03-03T07:07:48.975Z,240
2017-03-03T07:08:48.444Z,260
2017-03-03T07:09:49.388Z,250
2017-03-03T07:10:49.051Z,255
2017-03-03T07:11:48.295Z,275
2017-03-03T07:12:48.692Z,275
2017-03-03T07:13:48.795Z,295
2017-03-03T07:14:48.423Z,310
2017-03-03T07:15:48.829Z,355
2017-03-03T07:16:49.293Z,365
2017-03-03T07:17:48.892Z,310
2017-03-03T07:18:48.533Z,395
2017-03-03T07:19:48.968Z,390
2017-03-03T07:20:48.996Z,415
2017-03-03T07:21:49.454Z,420
2017-03-03T07:22:49.090Z,420
2017-03-03T07:23:49.505Z,415
2017-03-03T07:24:49.133Z,410
2017-03-03T07:25:49.582Z,435
2017-03-03T07:26:49.621Z,435
2017-03-03T07:27:48.858Z,450
2017-03-03T07:28:48.903Z,470
2017-03-03T07:29:49.340Z,485
2017-03-03T07:30:49.755Z,475
2017-03-03T07:31:49.499Z,450
2017-03-03T07:32:49.504Z,410
2017-03-03T07:33:49.474Z,340
2017-03-03T07:34:49.541Z,300
2017-03-03T07:35:49.552Z,280
2017-03-03T07:36:49.966Z,270
2017-03-03T07:37:50.071Z,270
2017-03-03T07:38:49.659Z,265
2017-03-03T07:39:49.340Z,270
2017-03-03T07:40:50.163Z,290
2017-03-03T07:41:50.191Z,385
2017-03-03T07:42:49.425Z,485
2017-03-03T07:43:49.845Z,525
2017-03-03T07:44:49.879Z,540
2017-03-03T07:45:50.726Z,560
2017-03-03T07:46:49.583Z,620
2017-03-03T07:47:50.391Z,650
2017-03-03T07:48:50.040Z,660
2017-03-03T07:49:49.726Z,660
2017-03-03T07:50:49.736Z,670
2017-03-03T07:51:50.163Z,665
2017-03-03T07:52:49.810Z,680
2017-03-03T07:53:50.634Z,680
2017-03-03T07:54:50.320Z,680
2017-03-03T07:55:50.705Z,695
2017-03-03T07:56:50.384Z,690
2017-03-03T07:57:50.399Z,660
2017-03-03T07:58:50.466Z,700
2017-03-03T07:59:50.467Z,660
2017-03-03T08:00:50.537Z,585
2017-03-03T08:01:50.583Z,570
2017-03-03T08:02:51.405Z,495
2017-03-03T08:03:51.449Z,460
2017-03-03T08:04:50.672Z,415
2017-03-03T08:05:50.740Z,370
2017-03-03T08:06:50.766Z,390
2017-03-03T08:07:51.250Z,385
2017-03-03T08:08:50.951Z,405
2017-03-03T08:09:51.282Z,405
2017-03-03T08:10:50.524Z,405
2017-03-03T08:11:50.968Z,415
2017-03-03T08:12:50.645Z,435
2017-03-03T08:13:51.434Z,455
2017-03-03T08:14:50.698Z,400
2017-03-03T08:15:51.295Z,385
2017-03-03T08:16:50.804Z,375
2017-03-03T08:17:51.605Z,360
2017-03-03T08:18:51.633Z,360
2017-03-03T08:19:51.354Z,350
2017-03-03T08:20:52.109Z,345
2017-03-03T08:21:52.275Z,350
2017-03-03T08:22:51.486Z,360
2017-03-03T08:23:51.421Z,360
2017-03-03T08:24:51.505Z,345
2017-03-03T08:25:52.302Z,345
2017-03-03T08:26:51.330Z,360
2017-03-03T08:27:51.670Z,360
2017-03-03T08:28:51.251Z,340
2017-03-03T08:29:52.076Z,340
2017-03-03T08:30:52.571Z,315
2017-03-03T08:31:51.732Z,305
2017-03-03T08:32:51.428Z,290
2017-03-03T08:33:52.257Z,270
2017-03-03T08:34:52.239Z,255
2017-03-03T08:35:52.298Z,250
2017-03-03T08:36:51.926Z,255
2017-03-03T08:37:51.989Z,250
2017-03-03T08:38:52.422Z,245
2017-03-03T08:39:52.435Z,245
2017-03-03T08:40:52.066Z,245
2017-03-03T08:41:52.505Z,240
2017-03-03T08:42:52.155Z,235
2017-03-03T08:43:51.812Z,240
2017-03-03T08:44:51.844Z,250
2017-03-03T08:45:51.892Z,250
2017-03-03T08:46:53.080Z,245
2017-03-03T08:47:51.958Z,245
2017-03-03T08:48:53.194Z,250
2017-03-03T08:49:52.420Z,250
2017-03-03T08:50:52.520Z,255
2017-03-03T08:51:52.485Z,265
2017-03-03T08:52:52.139Z,280
2017-03-03T08:53:52.575Z,270
2017-03-03T08:54:52.612Z,265
2017-03-03T08:55:52.660Z,300
2017-03-03T08:56:52.679Z,320
2017-03-03T08:57:53.129Z,315
2017-03-03T08:58:52.772Z,320
2017-03-03T08:59:52.798Z,340
2017-03-03T09:00:52.434Z,355
2017-03-03T09:01:52.897Z,420
2017-03-03T09:02:52.915Z,430
2017-03-03T09:03:53.381Z,605
2017-03-03T09:04:53.403Z,745
2017-03-03T09:05:53.038Z,820
2017-03-03T09:06:53.144Z,875
2017-03-03T09:07:53.881Z,910
2017-03-03T09:08:53.148Z,980
2017-03-03T09:09:52.782Z,1055
2017-03-03T09:10:52.826Z,1145
2017-03-03T09:11:53.255Z,1225
2017-03-03T09:12:53.285Z,1275
2017-03-03T09:13:53.353Z,1315
2017-03-03T09:14:53.385Z,1355
2017-03-03T09:15:53.425Z,1365
2017-03-03T09:16:53.144Z,1370
2017-03-03T09:17:53.886Z,1370
2017-03-03T09:18:53.553Z,1360
2017-03-03T09:19:53.574Z,1380
2017-03-03T09:20:53.666Z,1385
2017-03-03T09:21:53.661Z,1395
2017-03-03T09:22:53.716Z,1410
2017-03-03T09:23:54.160Z,1365
2017-03-03T09:24:53.822Z,1315
2017-03-03T09:25:54.418Z,1295
2017-03-03T09:26:53.901Z,1350
2017-03-03T09:27:54.332Z,1435
2017-03-03T09:28:54.011Z,1445
2017-03-03T09:29:54.126Z,1435
2017-03-03T09:30:54.464Z,1435
2017-03-03T09:31:54.561Z,1445
2017-03-03T09:32:54.593Z,1450
2017-03-03T09:33:55.402Z,1460
2017-03-03T09:34:54.274Z,1380
2017-03-03T09:35:54.355Z,1275
2017-03-03T09:36:54.907Z,1290
2017-03-03T09:37:55.203Z,1215
2017-03-03T09:38:54.445Z,1250
2017-03-03T09:39:55.013Z,1265
2017-03-03T09:40:55.363Z,1295
2017-03-03T09:41:54.601Z,1320
2017-03-03T09:42:54.271Z,1355
2017-03-03T09:43:54.725Z,1270
2017-03-03T09:44:54.971Z,1265
2017-03-03T09:45:55.955Z,1260
2017-03-03T09:46:55.638Z,1295
2017-03-03T09:47:55.263Z,1235
2017-03-03T09:48:56.193Z,1220
2017-03-03T09:49:54.589Z,1265
2017-03-03T09:50:55.043Z,1175
2017-03-03T09:51:55.506Z,1175
2017-03-03T09:52:56.296Z,1210
2017-03-03T09:53:55.580Z,1205
2017-03-03T09:54:55.785Z,1170
2017-03-03T09:55:55.280Z,1175
2017-03-03T09:56:54.996Z,1195
2017-03-03T09:57:55.768Z,1200
2017-03-03T09:58:56.231Z,1195
2017-03-03T09:59:55.465Z,1225
2017-03-03T10:00:56.335Z,1225
2017-03-03T10:01:55.943Z,1260
2017-03-03T10:02:56.006Z,1255
2017-03-03T10:03:56.069Z,1145
2017-03-03T10:04:55.320Z,1290
2017-03-03T10:05:56.172Z,1310
2017-03-03T10:06:56.307Z,1315
2017-03-03T10:07:55.859Z,1285
2017-03-03T10:08:56.304Z,1280
2017-03-03T10:09:56.378Z,1240
2017-03-03T10:10:55.788Z,1220
2017-03-03T10:11:55.665Z,1255
2017-03-03T10:12:56.116Z,1235
2017-03-03T10:13:55.741Z,1270
2017-03-03T10:14:56.208Z,1275
2017-03-03T10:15:55.864Z,1280
2017-03-03T10:16:56.323Z,1280
2017-03-03T10:17:55.940Z,1180
2017-03-03T10:18:56.439Z,1200
2017-03-03T10:19:56.461Z,1185
2017-03-03T10:20:56.530Z,1200
2017-03-03T10:21:56.693Z,1200
2017-03-03T10:22:56.980Z,1210
2017-03-03T10:23:57.053Z,1185
2017-03-03T10:24:57.091Z,1180
2017-03-03T10:25:56.789Z,1175
2017-03-03T10:26:57.585Z,1190
2017-03-03T10:27:57.239Z,1245
2017-03-03T10:28:57.699Z,1225
2017-03-03T10:29:57.350Z,1245
2017-03-03T10:30:57.021Z,1240
2017-03-03T10:31:57.056Z,1230
2017-03-03T10:32:57.484Z,1230
2017-03-03T10:33:57.141Z,1230
2017-03-03T10:34:57.609Z,1245
2017-03-03T10:35:57.242Z,1290
2017-03-03T10:36:56.952Z,1310
2017-03-03T10:37:57.743Z,1270
2017-03-03T10:38:57.431Z,1285
2017-03-03T10:39:57.475Z,1335
2017-03-03T10:40:57.504Z,1375
2017-03-03T10:41:57.546Z,1355
2017-03-03T10:42:57.673Z,1345
2017-03-03T10:43:57.750Z,1365
2017-03-03T10:44:58.507Z,1415
2017-03-03T10:45:57.371Z,1450
2017-03-03T10:46:58.698Z,1420
2017-03-03T10:47:57.459Z,1430
2017-03-03T10:48:58.683Z,1470
2017-03-03T10:49:58.354Z,1470
2017-03-03T10:50:58.610Z,1450
2017-03-03T10:51:58.865Z,1445
2017-03-03T10:52:58.540Z,1350
2017-03-03T10:53:57.806Z,1450
2017-03-03T10:54:58.340Z,1475
2017-03-03T10:55:57.867Z,1465
2017-03-03T10:56:59.115Z,1380
2017-03-03T10:57:57.966Z,1495
2017-03-03T10:58:58.915Z,1500
2017-03-03T10:59:58.874Z,1490
2017-03-03T11:00:58.563Z,1460
2017-03-03T11:01:59.374Z,1380
2017-03-03T11:02:59.012Z,1270
2017-03-03T11:03:59.471Z,1240
2017-03-03T11:04:58.743Z,1200
2017-03-03T11:05:58.781Z,1055
2017-03-03T11:06:58.466Z,1275
2017-03-03T11:07:58.881Z,1315
2017-03-03T11:08:58.548Z,1385
2017-03-03T11:09:58.604Z,1330
2017-03-03T11:10:59.879Z,1335
2017-03-03T11:11:59.630Z,1260
2017-03-03T11:12:59.140Z,1220
2017-03-03T11:13:59.588Z,1185
2017-03-03T11:14:58.834Z,1180
2017-03-03T11:15:59.288Z,1195
2017-03-03T11:16:59.395Z,1270
2017-03-03T11:17:59.780Z,1260
2017-03-03T11:18:59.030Z,1215
2017-03-03T11:19:59.869Z,1015
2017-03-03T11:20:59.954Z,920
2017-03-03T11:21:59.947Z,950
2017-03-03T11:22:59.611Z,1015
2017-03-03T11:24:00.052Z,795
2017-03-03T11:24:59.729Z,510
2017-03-03T11:25:59.754Z,445
2017-03-03T11:27:00.601Z,415
2017-03-03T11:27:59.955Z,395
2017-03-03T11:28:59.930Z,375
2017-03-03T11:29:59.568Z,370
2017-03-03T11:31:00.390Z,360
2017-03-03T11:31:59.675Z,355
2017-03-03T11:33:00.093Z,340
2017-03-03T11:33:59.748Z,345
2017-03-03T11:35:00.578Z,340
2017-03-03T11:36:00.642Z,345
2017-03-03T11:36:59.897Z,345
2017-03-03T11:38:00.321Z,340
2017-03-03T11:39:00.357Z,335
2017-03-03T11:40:00.021Z,335
2017-03-03T11:41:00.879Z,325
2017-03-03T11:42:00.523Z,310
2017-03-03T11:43:01.127Z,305
2017-03-03T11:44:01.009Z,300
2017-03-03T11:45:00.645Z,300
2017-03-03T11:46:00.304Z,300
2017-03-03T11:47:01.541Z,295
2017-03-03T11:48:00.412Z,295
2017-03-03T11:49:00.429Z,275
2017-03-03T11:50:01.277Z,275
2017-03-03T11:51:01.332Z,280
2017-03-03T11:52:01.398Z,285
2017-03-03T11:53:01.016Z,285
2017-03-03T11:54:01.051Z,290
2017-03-03T11:55:01.102Z,285
2017-03-03T11:56:01.536Z,295
2017-03-03T11:57:01.194Z,285
2017-03-03T11:58:01.621Z,285
2017-03-03T11:59:00.892Z,285
2017-03-03T12:00:02.121Z,280
2017-03-03T12:01:00.995Z,280
2017-03-03T12:02:01.023Z,280
2017-03-03T12:03:01.847Z,280
2017-03-03T12:04:01.495Z,285
2017-03-03T12:05:01.955Z,275
2017-03-03T12:06:01.583Z,275
2017-03-03T12:07:01.631Z,275
2017-03-03T12:08:02.474Z,275
2017-03-03T12:09:01.335Z,270
2017-03-03T12:10:01.762Z,265
2017-03-03T12:11:02.328Z,265
2017-03-03T12:12:01.858Z,265
2017-03-03T12:13:01.895Z,270
2017-03-03T12:14:02.155Z,270
2017-03-03T12:15:01.973Z,270
2017-03-03T12:16:02.432Z,265
2017-03-03T12:17:02.853Z,265
2017-03-03T12:18:02.515Z,260
2017-03-03T12:19:01.771Z,260
2017-03-03T12:20:02.193Z,265
2017-03-03T12:21:02.222Z,260
2017-03-03T12:22:03.089Z,265
2017-03-03T12:23:02.705Z,265
2017-03-03T12:24:02.754Z,265
2017-03-03T12:25:02.403Z,265
2017-03-03T12:26:02.044Z,265
2017-03-03T12:27:02.482Z,265
2017-03-03T12:28:02.536Z,260
2017-03-03T12:29:02.181Z,260
2017-03-03T12:30:02.601Z,260
2017-03-03T12:31:02.644Z,255
2017-03-03T12:32:02.691Z,255
2017-03-03T12:33:02.736Z,255
2017-03-03T12:34:03.176Z,255
2017-03-03T12:35:03.195Z,255
2017-03-03T12:36:02.848Z,255
2017-03-03T12:37:02.915Z,255
2017-03-03T12:38:03.742Z,255
2017-03-03T12:39:02.975Z,250
2017-03-03T12:40:03.798Z,245
2017-03-03T12:41:03.451Z,240
2017-03-03T12:42:03.485Z,235
2017-03-03T12:43:03.928Z,235
2017-03-03T12:44:03.596Z,225
2017-03-03T12:45:03.230Z,220
2017-03-03T12:46:03.288Z,215
2017-03-03T12:47:04.540Z,215
2017-03-03T12:48:03.008Z,210
2017-03-03T12:49:03.388Z,210
2017-03-03T12:50:03.672Z,205
2017-03-03T12:51:03.864Z,205
2017-03-03T12:52:03.560Z,210
2017-03-03T12:53:03.147Z,210
2017-03-03T12:54:04.398Z,215
2017-03-03T12:55:03.243Z,215
2017-03-03T12:56:04.073Z,215
2017-03-03T12:57:04.119Z,225
2017-03-03T12:58:04.160Z,225
2017-03-03T12:59:04.201Z,220
2017-03-03T13:00:03.853Z,225
2017-03-03T13:01:04.290Z,225
2017-03-03T13:02:03.928Z,225
2017-03-03T13:03:03.962Z,225
2017-03-03T13:04:04.410Z,225
2017-03-03T13:05:04.447Z,230
2017-03-03T13:06:04.888Z,220
2017-03-03T13:07:04.554Z,220
2017-03-03T13:08:04.205Z,220
2017-03-03T13:09:04.608Z,215
2017-03-03T13:10:04.274Z,215
2017-03-03T13:11:04.294Z,215
2017-03-03T13:12:04.761Z,215
2017-03-03T13:13:04.781Z,215
2017-03-03T13:14:04.795Z,215
2017-03-03T13:15:04.869Z,215
2017-03-03T13:16:04.876Z,210
2017-03-03T13:17:04.946Z,210
2017-03-03T13:18:05.002Z,210
2017-03-03T13:19:05.396Z,210
2017-03-03T13:20:05.079Z,210
2017-03-03T13:21:04.688Z,210
2017-03-03T13:22:05.913Z,210
2017-03-03T13:23:05.229Z,205
2017-03-03T13:24:05.612Z,205
2017-03-03T13:25:05.026Z,205
2017-03-03T13:26:04.912Z,205
2017-03-03T13:27:04.927Z,205
2017-03-03T13:28:05.778Z,205
2017-03-03T13:29:05.411Z,205
2017-03-03T13:30:05.454Z,200
2017-03-03T13:31:05.149Z,200
2017-03-03T13:32:05.139Z,200
2017-03-03T13:33:05.947Z,200
2017-03-03T13:34:05.188Z,200
2017-03-03T13:35:05.633Z,200
2017-03-03T13:36:05.305Z,200
2017-03-03T13:37:05.725Z,200
2017-03-03T13:38:05.769Z,200
2017-03-03T13:39:06.222Z,200
2017-03-03T13:40:06.662Z,200
2017-03-03T13:41:06.681Z,200
2017-03-03T13:42:05.133Z,200
2017-03-03T13:43:06.391Z,195
2017-03-03T13:44:06.023Z,195
2017-03-03T13:45:05.701Z,195
2017-03-03T13:46:06.073Z,190
2017-03-03T13:47:05.731Z,190
2017-03-03T13:48:06.574Z,190
2017-03-03T13:49:05.813Z,190
2017-03-03T13:50:06.263Z,190
2017-03-03T13:51:06.691Z,195
2017-03-03T13:52:06.317Z,195
2017-03-03T13:53:06.357Z,190
2017-03-03T13:54:06.402Z,190
2017-03-03T13:55:06.449Z,185
2017-03-03T13:56:06.843Z,185
2017-03-03T13:57:06.980Z,185
2017-03-03T13:58:06.961Z,185
2017-03-03T13:59:06.215Z,180
2017-03-03T14:00:06.266Z,175
2017-03-03T14:01:06.664Z,175
2017-03-03T14:02:06.704Z,170
2017-03-03T14:03:05.989Z,170
2017-03-03T14:04:06.784Z,170
2017-03-03T14:05:06.850Z,165
2017-03-03T14:06:06.850Z,165
2017-03-03T14:07:06.912Z,165
2017-03-03T14:08:06.552Z,165